Tropical Cyclones
[Index]
Main Index Home Page Stock Weather Photos Extreme Storms Discussion Storm News and Storm Chasing Reports Tropical Cyclones / Hurricanes / Typhoons Weather Data and Links Wild Fires / Bushfires Weather Observation Techniques Weather Picture Catalogue Tornado Pictures and Reports Stock Video Footage and DVDs for sale
Season 1997-1998 Tropical Cyclone NATHAN Track Map
Season 1997-1998 Summaries: [BoM-AU] [JTWC-AU] [JTWC-SIO] [JTWC-SPAC] [JTWC-SH]
<<- Previous TC | BoM 1997-1998 Season | Next TC ->>

click for intensity scale information  Lat/long Grid: Show Hide

 Date Labels: Show Hide

Bureau of Meteorology Tropical Cyclone Data

Name: NATHAN
Number: 815 / 199798_09

20 Mar 1998 06:00 UTC to 29 Mar 1998 00:00 UTC

    date/time    lat    long    hPa   cat  kts
1998-03-20 06   10.7   144.3   1002         30          
1998-03-20 12   11.0   143.6   1002         30          
1998-03-20 18   11.2   143.4   1000         40          
1998-03-21 00   11.2   143.7    995    1    40          
1998-03-21 06   11.3   143.9    990    1    50          
1998-03-21 12   11.3   144.2    990    1    50          
1998-03-21 18   11.3   144.4    990    1    50          
1998-03-22 00   11.4   144.6    990    1    50          
1998-03-22 06   11.8   144.9    990    1    40          
1998-03-22 12   12.5   145.1    995    1    40          
1998-03-22 18   13.0   145.3    995    1    40          
1998-03-23 00   13.5   145.7    995    1    40          
1998-03-23 06   13.9   145.8    995    1    40          
1998-03-23 12   14.2   146.1    995    1    45          
1998-03-23 18   14.2   146.4    995    1    45          
1998-03-24 00   14.0   147.1    990    1    45          
1998-03-24 06   13.8   147.9    990    1    45          
1998-03-24 12   13.5   148.6    990    1    45          
1998-03-24 18   13.3   149.8    990    1    45          
1998-03-25 00   13.0   151.6    990    1    45          
1998-03-25 06   12.9   153.4    995    1    40          
1998-03-25 12   12.8   154.9    995    1    40          
1998-03-25 18   13.0   155.9    995    1    40          
1998-03-26 00   13.2   156.7    995    1    40          
1998-03-26 06   13.7   157.5    995    1    40          
1998-03-26 12   14.1   158.1    995    1    40          
1998-03-26 18   14.6   158.4    995    1    40          
1998-03-27 00   14.8   158.7    996         30          
1998-03-27 06   15.2   158.8    998         30          
1998-03-27 12   15.5   158.6    998         30          
1998-03-27 18   15.9   158.2    998         30          
1998-03-28 00   16.3   157.7    998         30          
1998-03-28 06   16.2   157.3    998         30          
1998-03-28 12   16.1   156.8    998         30          
1998-03-28 18   16.0   156.0    998         30          
1998-03-29 00   15.8   155.1    998         30          
Winds are 10-min average.

Tropical cyclone tracks developed by Michael Bath using data from the Bureau of Meteorology and Google Maps.


[Australian Severe Weather index] [Copyright Notice] [Email Contacts] [Search This Site] [Privacy Policy]
Document: tropical_cyclone_nathan.htm Updated: 4 April 2018